Etusivu
METAR-TAF:

METAR-TAF

Lentoasemat :

Nador, Marokko

Leveyspiiri: 34-59-20N, Pituuspiiri: 003-01-42W, korkeus merenpinnasta: 175 m

Tämänhetkinen sää

Tämä raportti tehtiin 42 minuuttia sitten, kello 03.00 UTC
Tuuli 2 kn lännestä/luoteesta
Lämpötila 19°C
Kosteus 52%
Ilmanpaine 1013 hPa
Näkyvyys 10 km tai enemmän
ei pilviä alle 1500 m:ssä eikä cumulonimbus-pilviä

METAR: GMMW 140300Z 29002KT CAVOK 19/09 Q1013 NOSIG

Aika: 04:42 (03:42 UTC)

Sääennuste

Tämä raportti tehtiin 4 tuntia ja 42 minuuttia sitten, kello 23.00 UTC
Ennuste voimassa 14. päivästä klo 00 UTC - 15. päivään klo 06 UTC
Tuuli 2 kn eri suunnista
Näkyvyys 10 km tai enemmän
ei pilviä alle 1500 m:ssä eikä cumulonimbus-pilviä

TAF: GMMW 132300Z 1400/1506 VRB02KT CAVOK

Säähavainnot ja -ennusteet yli 4000 lentoasemalta (METAR- ja TAF-raportit).

Käytössä olevat sääasemat on merkitty karttaan keltaisilla ja punaisilla pisteillä.

Aseta hiiri pisteen päälle nähdäksesi sääaseman nimen.

Klikkaa sitten nähdäksesi säähavainnot ja -ennusteet.

Kartan vaihtaminen: klikkaa mustalla rastilla varustettuja vihreitä pisteitä, niin voit zoomata sisään; viivalla varustettua vihreää pistettä, niin voit zoomata ulos tai vihreitä nuolia, niin pääset viereisille kartoille.


METAR-TAF: